Condiciones actuales en los principales Aeropuertos de España-Datos Metar

 

LEAL - Alicante
Actualización: 17/08/2017 05:00
Despejado
Despejado
 Viento del OSO
Viento: OSO 6 km/h
Temperatura: 25°C
Rocío: 23°C
Humedad: 89%
Barómetro: 1017 hPa
Resumen: Despejado
Visibilidad: greater than 10 km
2017/08/17 03:00 LEAL 170300Z 25003KT CAVOK 25/23 Q1017 NOSIG
LEAB - Albacete
Actualización: 17/08/2017 05:00
Despejado
Despejado
 Viento del SE
Viento: SE 11 km/h
Temperatura: 21°C
Rocío: 18°C
Humedad: 83%
Barómetro: 1021 hPa
Resumen: Despejado
Visibilidad: greater than 10 km
2017/08/17 03:00 LEAB 170300Z 13006KT CAVOK 21/18 Q1021 NOSIG
LEAM - Almería
Actualización: 17/08/2017 05:00
Despejado
Despejado
 Viento del calm
Viento: Calma
Temperatura: 25°C
Rocío: 22°C
Humedad: 83%
Barómetro: 1017 hPa
Resumen: Despejado
Visibilidad: greater than 10 km
2017/08/17 03:00 LEAM 170300Z 00000KT CAVOK 25/22 Q1017
 
LEAS - Asturias/Aviles
Actualización: 17/08/2017 05:00
Despejado
Despejado
 Viento del O
Viento: O 2 km/h
Temperatura: 16°C
Rocío: 14°C
Humedad: 88%
Barómetro: 1021 hPa
Nubosidad: Despejado
Visibilidad: 9 km
2017/08/17 03:00 LEAS 170300Z AUTO 26001KT 9000 NCD 16/14 Q1021
LEBZ - Badajoz/Talavera la Real
Actualización: 16/08/2017 21:00
NO Actualizado
Despejado
Despejado
 Viento del O
Viento: O 20 km/h
Temperatura: 33°C
Rocío: 8°C
Humedad: 21%
Barómetro: 1017 hPa
Resumen: Despejado
Visibilidad: greater than 10 km
2017/08/16 19:00 LEBZ 161900Z 28011KT CAVOK 33/08 Q1017
LEBL - Barcelona
Actualización: 17/08/2017 05:00
Few Clouds
Few Clouds
 Viento del NNO
Viento: NNO 15 km/h
Temperatura: 24°C
Rocío: 16°C
Humedad: 61%
Barómetro: 1018 hPa
Nubosidad: Few Clouds
Visibilidad: 10 km
Cloud details: Few Clouds 762 m
2017/08/17 03:00 LEBL 170300Z 33008KT 9999 FEW025 24/16 Q1018 NOSIG
 
LEBB - Bilbao
Actualización: 17/08/2017 05:00
Despejado
Despejado
 Viento del varies
Viento: varies 2 km/h
Temperatura: 16°C
Rocío: 15°C
Humedad: 94%
Barómetro: 1021 hPa
Resumen: Despejado
Visibilidad: greater than 10 km
2017/08/17 03:00 LEBB 170300Z VRB01KT CAVOK 16/15 Q1021 NOSIG
LEBG - Burgos/Villafría
Actualización: 17/08/2017 05:00
Despejado
Despejado
 Viento del varies
Viento: varies 2 km/h
Temperatura: 13°C
Rocío: 6°C
Humedad: 63%
Barómetro: 1023 hPa
Nubosidad: Despejado
Visibilidad: 10 km
2017/08/17 03:00 LEBG 170300Z AUTO VRB01KT 9999 NCD 13/06 Q1023
LEBA - Córdoba
Actualización: 17/08/2017 05:00
Despejado
Despejado
 Viento del calm
Viento: Calma
Temperatura: 21°C
Rocío: 6°C
Humedad: 38%
Barómetro: 1016 hPa
Nubosidad: Despejado
Visibilidad: 10 km
2017/08/17 03:00 LEBA 170300Z AUTO 00000KT 9999 NCD 21/06 Q1016
 
LEGE - Gerona
Actualización: 17/08/2017 05:00
Despejado
Despejado
 Viento del calm
Viento: Calma
Temperatura: 19°C
Rocío: 17°C
Humedad: 88%
Barómetro: 1019 hPa
Resumen: Despejado
Visibilidad: greater than 10 km
2017/08/17 03:00 LEGE 170300Z 00000KT CAVOK 19/17 Q1019
LEGR - Granada
Actualización: 17/08/2017 05:00
Despejado
Despejado
 Viento del varies
Viento: varies 2 km/h
Temperatura: 19°C
Rocío: 6°C
Humedad: 43%
Barómetro: 1020 hPa
Nubosidad: Despejado
Visibilidad: 10 km
2017/08/17 03:00 LEGR 170300Z AUTO VRB01KT 9999 NCD 19/06 Q1020
GCHI - Hierro
Actualización: 17/08/2017 05:00
Cubierto
Cubierto
 Viento del N
Viento: N 20 km/h
Temperatura: 23°C
Rocío: 20°C
Humedad: 83%
Barómetro: 1017 hPa
Nubosidad: Cubierto
Visibilidad: 10 km
Cloud details: Partly Cloudy 427 m
Cubierto 610 m
2017/08/17 03:00 GCHI 170300Z AUTO 01011KT 340V050 9999 SCT014/// OVC020/// 23/20 Q1017
 
LEIB - Ibiza
Actualización: 17/08/2017 05:00
Few Clouds
Few Clouds
 Viento del varies
Viento: varies 4 km/h
Temperatura: 25°C
Rocío: 23°C
Humedad: 89%
Barómetro: 1017 hPa
Nubosidad: Few Clouds
Visibilidad: 10 km
Cloud details: Few Clouds 457 m
2017/08/17 03:00 LEIB 170300Z VRB02KT 9999 FEW015 25/23 Q1017 NOSIG
LEJR - Jerez de la Frontera
Actualización: 17/08/2017 05:30
Despejado
Despejado
 Viento del calm
Viento: Calma
Temperatura: 18°C
Rocío: 13°C
Humedad: 73%
Barómetro: 1015 hPa
Resumen: Despejado
Visibilidad: greater than 10 km
2017/08/17 03:30 LEJR 170330Z 00000KT CAVOK 18/13 Q1015
LECO - A Coruña
Actualización: 17/08/2017 05:00
Cubierto
Cubierto
 Viento del OSO
Viento: OSO 6 km/h
Temperatura: 21°C
Rocío: 17°C
Humedad: 78%
Barómetro: 1021 hPa
Nubosidad: Cubierto
Visibilidad: 10 km
Cloud details: Cubierto 732 m
2017/08/17 03:00 LECO 170300Z AUTO 24003KT 210V280 9999 OVC024/// 21/17 Q1021
 
GCLA - La Palma
Actualización: 17/08/2017 05:00
Despejado
Despejado
 Viento del NNO
Viento: NNO 17 km/h
Temperatura: 22°C
Rocío: 19°C
Humedad: 83%
Barómetro: 1018 hPa
Nubosidad: Despejado
Visibilidad: 10 km
2017/08/17 03:00 GCLA 170300Z AUTO 34009KT 9999 NCD 22/19 Q1018
GCRR - Lanzarote
Actualización: 17/08/2017 02:00
NO Actualizado
Few Clouds
Few Clouds
 Viento del N
Viento: N 33 km/h
Temperatura: 23°C
Rocío: 20°C
Humedad: 83%
Barómetro: 1016 hPa
Nubosidad: Few Clouds
Visibilidad: 10 km
Cloud details: Few Clouds 610 m
2017/08/17 00:00 GCRR 170000Z 36018KT 9999 FEW020 23/20 Q1016
GCLP - Las Palmas
Actualización: 17/08/2017 05:00
Despejado
Despejado
 Viento del N
Viento: N 33 km/h
Temperatura: 23°C
Rocío: 19°C
Humedad: 78%
Barómetro: 1016 hPa
Resumen: Despejado
Visibilidad: greater than 10 km
2017/08/17 03:00 GCLP 170300Z 01018KT CAVOK 23/19 Q1016 NOSIG
 
LELN - León
Actualización: 16/08/2017 21:00
NO Actualizado
Despejado
Despejado
 Viento del O
Viento: O 7 km/h
Temperatura: 27°C
Rocío: 8°C
Humedad: 30%
Barómetro: 1022 hPa
Resumen: Despejado
Visibilidad: greater than 10 km
2017/08/16 19:00 LELN 161900Z 26004KT 210V310 CAVOK 27/08 Q1022
LELO - Logroño
Actualización: 16/08/2017 23:00
NO Actualizado
Despejado
Despejado
 Viento del varies
Viento: varies 2 km/h
Temperatura: 22°C
Rocío: 10°C
Humedad: 47%
Barómetro: 1023 hPa
Resumen: Despejado
Visibilidad: greater than 10 km
2017/08/16 21:00 LELO 162100Z VRB01KT CAVOK 22/10 Q1023
LECV - Madrid/Colmenar
Actualización: 16/08/2017 20:00
NO Actualizado
Despejado
Despejado
 Viento del ESE
Viento: ESE 17 km/h
Temperatura: 31°C
Rocío: 1°C
Humedad: 15%
Barómetro: 1021 hPa
Resumen: Despejado
Visibilidad: greater than 10 km
2017/08/16 18:00 LECV 161800Z 12009KT CAVOK 31/01 Q1021
 
LEMD - Madrid/Barajas
Actualización: 17/08/2017 05:00
Despejado
Despejado
 Viento del NNO
Viento: NNO 9 km/h
Temperatura: 23°C
Rocío: 11°C
Humedad: 47%
Barómetro: 1020 hPa
Resumen: Despejado
Visibilidad: greater than 10 km
2017/08/17 03:00 LEMD 170300Z 34005KT CAVOK 23/11 Q1020 NOSIG
LEVS - Madrid/Cuatro Vientos
Actualización: 16/08/2017 22:00
NO Actualizado
Despejado
Despejado
 Viento del O
Viento: O 11 km/h
Temperatura: 30°C
Rocío: 4°C
Humedad: 19%
Barómetro: 1020 hPa
Resumen: Despejado
Visibilidad: greater than 10 km
2017/08/16 20:00 LEVS 162000Z 28006KT 260V320 CAVOK 30/04 Q1020
LEGT - Madrid/Getafe
Actualización: 16/08/2017 22:00
NO Actualizado
Despejado
Despejado
 Viento del O
Viento: O 7 km/h
Temperatura: 31°C
Rocío: 6°C
Humedad: 21%
Barómetro: 1019 hPa
Resumen: Despejado
Visibilidad: greater than 10 km
2017/08/16 20:00 LEGT 162000Z 28004KT CAVOK 31/06 Q1019
 
LETO - Madrid/Torrejón
Actualización: 17/08/2017 05:00
Despejado
Despejado
 Viento del ENE
Viento: ENE 7 km/h
Temperatura: 23°C
Rocío: 12°C
Humedad: 50%
Barómetro: 1020 hPa
Resumen: Despejado
Visibilidad: greater than 10 km
2017/08/17 03:00 LETO 170300Z 07004KT CAVOK 23/12 Q1020 NOSIG
LEMG - Málaga
Actualización: 17/08/2017 05:00
Few Clouds
Few Clouds
 Viento del ONO
Viento: ONO 4 km/h
Temperatura: 23°C
Rocío: 21°C
Humedad: 89%
Barómetro: 1017 hPa
Nubosidad: Few Clouds
Visibilidad: 10 km
Cloud details: Few Clouds 335 m
2017/08/17 03:00 LEMG 170300Z 30002KT 9999 FEW011 23/21 Q1017 NOSIG
GEML - Melilla
Actualización: 17/08/2017 05:00
Few Clouds
Few Clouds
 Viento del E
Viento: E 6 km/h
Temperatura: 25°C
Rocío: 23°C
Humedad: 89%
Barómetro: 1017 hPa
Nubosidad: Few Clouds
Visibilidad: 10 km
Cloud details: Few Clouds 152 m
2017/08/17 03:00 GEML 170300Z AUTO 09003KT 060V120 9999 FEW005/// 25/23 Q1017
 
LEMH - Mahón
Actualización: 17/08/2017 05:00
Despejado
Despejado
 Viento del NE
Viento: NE 17 km/h
Temperatura: 23°C
Rocío: 20°C
Humedad: 83%
Barómetro: 1018 hPa
Nubosidad: Despejado
Visibilidad: 10 km
2017/08/17 03:00 LEMH 170300Z AUTO 04009KT 9999 NCD 23/20 Q1018
LEMO - Morón de La Frontera
Actualización: 17/08/2017 05:00
Despejado
Despejado
 Viento del NE
Viento: NE 6 km/h
Temperatura: 20°C
Rocío: 6°C
Humedad: 40%
Barómetro: 1016 hPa
Resumen: Despejado
Visibilidad: greater than 10 km
2017/08/17 03:00 LEMO 170300Z 04003KT CAVOK 20/06 Q1016 NOSIG
LERI - Murcia/Alcantarilla
Actualización: 16/08/2017 20:00
NO Actualizado
Despejado
Despejado
 Viento del SE
Viento: SE 17 km/h
Temperatura: 32°C
Heat Index: 36°C
Rocío: 21°C
Humedad: 52%
Barómetro: 1016 hPa
Resumen: Despejado
Visibilidad: greater than 10 km
2017/08/16 18:00 LERI 161800Z 13009KT CAVOK 32/21 Q1016 NOSIG
 
LELC - Murcia/San Javier
Actualización: 16/08/2017 23:00
NO Actualizado
Despejado
Despejado
 Viento del varies
Viento: varies 4 km/h
Temperatura: 26°C
Rocío: 24°C
Humedad: 89%
Barómetro: 1018 hPa
Resumen: Despejado
Visibilidad: greater than 10 km
2017/08/16 21:00 LELC 162100Z VRB02KT CAVOK 26/24 Q1018 NOSIG
LEPA - Palma de Mallorca
Actualización: 17/08/2017 05:00
Few Clouds
Few Clouds
 Viento del NE
Viento: NE 6 km/h
Temperatura: 22°C
Rocío: 21°C
Humedad: 94%
Barómetro: 1017 hPa
Nubosidad: Few Clouds
Visibilidad: 10 km
Cloud details: Few Clouds 914 m
2017/08/17 03:00 LEPA 170300Z 05003KT 9999 FEW030 22/21 Q1017 NOSIG
LEPP - Pamplona
Actualización: 17/08/2017 05:00
Despejado
Despejado
 Viento del NE
Viento: NE 4 km/h
Temperatura: 15°C
Rocío: 14°C
Humedad: 94%
Barómetro: 1022 hPa
Nubosidad: Despejado
Visibilidad: 10 km
2017/08/17 03:00 LEPP 170300Z AUTO 05002KT 9999 NCD 15/14 Q1022
 
LERS - Reus
Actualización: 17/08/2017 05:00
Despejado
Despejado
 Viento del varies
Viento: varies 2 km/h
Temperatura: 22°C
Rocío: 18°C
Humedad: 78%
Barómetro: 1019 hPa
Nubosidad: Despejado
Visibilidad: 10 km
2017/08/17 03:00 LERS 170300Z AUTO VRB01KT 9999 NCD 22/18 Q1019
LERT - Rota
Actualización: 17/08/2017 05:18
Mist, Parcialmente nublado
Mist, Parcialmente nublado
 Viento del S
Viento: S 11 km/h
Temperatura: 22°C
Rocío: 21°C
Humedad: 94%
Barómetro: 1016 hPa
Resumen: Mist
Nubosidad: Partly Cloudy
Visibilidad: 5 km
2017/08/17 03:18 LERT 170318Z 17006KT 5000 BR NSC 22/21 Q1016 NOSIG
LELL - Sabadell
Actualización: 17/08/2017 05:00

 Viento del O
Viento: O 2 km/h
2017/08/17 03:00 LELL 170300Z AUTO 27001KT //// R31///// // NCD 20/17 Q1019
 
LESA - Salamanca
Actualización: 16/08/2017 21:00
NO Actualizado
Despejado
Despejado
 Viento del NE
Viento: NE 6 km/h
Temperatura: 26°C
Rocío: 13°C
Humedad: 45%
Barómetro: 1022 hPa
Resumen: Despejado
Visibilidad: greater than 10 km
2017/08/16 19:00 LESA 161900Z 04003KT 360V060 CAVOK 26/13 Q1022
LESO - San Sebastián
Actualización: 17/08/2017 05:00
Despejado
Despejado
 Viento del S
Viento: S 6 km/h
Temperatura: 17°C
Rocío: 17°C
Humedad: 100%
Barómetro: 1021 hPa
Nubosidad: Despejado
Visibilidad: 10 km
2017/08/17 03:00 LESO 170300Z AUTO 18003KT 9999 NCD 17/17 Q1021
LEXJ - Santander
Actualización: 17/08/2017 05:00
Despejado
Despejado
 Viento del calm
Viento: Calma
Temperatura: 17°C
Rocío: 17°C
Humedad: 100%
Barómetro: 1020 hPa
Nubosidad: Despejado
Visibilidad: 7 km
2017/08/17 03:00 LEXJ 170300Z AUTO 00000KT 7000 NCD 17/17 Q1020
 
LEPA - Palma de Mallorca
Actualización: 17/08/2017 05:00
Few Clouds
Few Clouds
 Viento del NE
Viento: NE 6 km/h
Temperatura: 22°C
Rocío: 21°C
Humedad: 94%
Barómetro: 1017 hPa
Nubosidad: Few Clouds
Visibilidad: 10 km
Cloud details: Few Clouds 914 m
2017/08/17 03:00 LEPA 170300Z 05003KT 9999 FEW030 22/21 Q1017 NOSIG
LEPP - Pamplona
Actualización: 17/08/2017 05:00
Despejado
Despejado
 Viento del NE
Viento: NE 4 km/h
Temperatura: 15°C
Rocío: 14°C
Humedad: 94%
Barómetro: 1022 hPa
Nubosidad: Despejado
Visibilidad: 10 km
2017/08/17 03:00 LEPP 170300Z AUTO 05002KT 9999 NCD 15/14 Q1022
LEST - Santiago de Compostela
Actualización: 17/08/2017 05:00
Cubierto
Cubierto
 Viento del varies
Viento: varies 2 km/h
Temperatura: 18°C
Rocío: 16°C
Humedad: 88%
Barómetro: 1023 hPa
Nubosidad: Cubierto
Visibilidad: 10 km
Cloud details: Cubierto 305 m
2017/08/17 03:00 LEST 170300Z VRB01KT 9999 OVC010 18/16 Q1023 NOSIG
 
LEZL - Sevilla
Actualización: 17/08/2017 05:00
Despejado
Despejado
 Viento del E
Viento: E 2 km/h
Temperatura: 21°C
Rocío: 13°C
Humedad: 60%
Barómetro: 1016 hPa
Resumen: Despejado
Visibilidad: greater than 10 km
2017/08/17 03:00 LEZL 170300Z 10001KT CAVOK 21/13 Q1016 NOSIG
GCXO - Tenerife
Actualización: 17/08/2017 05:00
Despejado
Despejado
 Viento del SSE
Viento: SSE 15 km/h
Temperatura: 23°C
Rocío: 12°C
Humedad: 50%
Barómetro: 1020 hPa
Nubosidad: Despejado
Visibilidad: 10 km
2017/08/17 03:00 GCXO 170300Z AUTO 15008KT 9999 NCD 23/12 Q1020
GCTS - Tenerife-Sur
Actualización: 17/08/2017 05:00
Few Clouds
Few Clouds
 Viento del varies
Viento: varies 4 km/h
Temperatura: 22°C
Rocío: 19°C
Humedad: 83%
Barómetro: 1016 hPa
Nubosidad: Few Clouds
Visibilidad: 10 km
Cloud details: Few Clouds 610 m
2017/08/17 03:00 GCTS 170300Z VRB02KT 9999 FEW020 22/19 Q1016 NOSIG
 
LEVC - Valencia
Actualización: 17/08/2017 05:00
Mostly Cloudy
Mostly Cloudy
 Viento del calm
Viento: Calma
Temperatura: 26°C
Rocío: 23°C
Humedad: 84%
Barómetro: 1018 hPa
Nubosidad: Mostly Cloudy
Visibilidad: 10 km
Cloud details: Mostly Cloudy 914 m
2017/08/17 03:00 LEVC 170300Z 00000KT 9999 BKN030 26/23 Q1018 NOSIG
LEVD - Valladolid
Actualización: 16/08/2017 21:30
NO Actualizado
Despejado
Despejado
 Viento del NNE
Viento: NNE 4 km/h
Temperatura: 25°C
Rocío: 5°C
Humedad: 28%
Barómetro: 1022 hPa
Resumen: Despejado
Visibilidad: greater than 10 km
2017/08/16 19:30 LEVD 161930Z 02002KT CAVOK 25/05 Q1022
LEVX - Vigo
Actualización: 17/08/2017 05:00
Cubierto
Cubierto
 Viento del N
Viento: N 6 km/h
Temperatura: 19°C
Rocío: 17°C
Humedad: 88%
Barómetro: 1022 hPa
Nubosidad: Cubierto
Visibilidad: 10 km
Cloud details: Cubierto 366 m
2017/08/17 03:00 LEVX 170300Z 36003KT 310V050 9999 OVC012 19/17 Q1022 TEMPO BKN010
 
LEVT - Vitoria
Actualización: 17/08/2017 05:00
Few Clouds
Few Clouds
 Viento del calm
Viento: Calma
Temperatura: 10°C
Rocío: 8°C
Humedad: 88%
Barómetro: 1023 hPa
Nubosidad: Few Clouds
Visibilidad: 10 km
Cloud details: Few Clouds 305 m
2017/08/17 03:00 LEVT 170300Z 00000KT 9999 FEW010 10/08 Q1023
LEZG - Zaragoza
Actualización: 17/08/2017 05:00
Despejado
Despejado
 Viento del O
Viento: O 22 km/h
Temperatura: 21°C
Rocío: 10°C
Humedad: 50%
Barómetro: 1020 hPa
Resumen: Despejado
Visibilidad: greater than 10 km
2017/08/17 03:00 LEZG 170300Z 27012KT CAVOK 21/10 Q1020

La estación de MeteoMurcia.com, publica sus datos en los siguientes proyectos:

Meteoclimatic www.awekas.at

W3Counter
Web Analytics